sensor_id;sensor_type;location;lat;lon;timestamp;P1;durP1;ratioP1;P2;durP2;ratioP2
48327;SDS011;34136;51.022;7.082;2023-08-06T00:00:33;6.45;;;3.03;;
48327;SDS011;34136;51.022;7.082;2023-08-06T00:03:20;8.50;;;3.00;;
48327;SDS011;34136;51.022;7.082;2023-08-06T00:06:06;6.03;;;3.08;;
48327;SDS011;34136;51.022;7.082;2023-08-06T00:08:52;3.90;;;2.90;;
48327;SDS011;34136;51.022;7.082;2023-08-06T00:11:38;4.50;;;2.75;;
48327;SDS011;34136;51.022;7.082;2023-08-06T00:14:24;4.60;;;2.65;;
48327;SDS011;34136;51.022;7.082;2023-08-06T00:17:11;4.40;;;2.83;;
48327;SDS011;34136;51.022;7.082;2023-08-06T00:19:57;5.07;;;2.95;;
48327;SDS011;34136;51.022;7.082;2023-08-06T00:22:43;4.85;;;2.88;;
48327;SDS011;34136;51.022;7.082;2023-08-06T00:25:29;5.10;;;2.97;;
48327;SDS011;34136;51.022;7.082;2023-08-06T00:28:15;4.88;;;3.08;;
48327;SDS011;34136;51.022;7.082;2023-08-06T00:31:01;5.18;;;2.92;;
48327;SDS011;34136;51.022;7.082;2023-08-06T00:33:48;5.20;;;3.25;;
48327;SDS011;34136;51.022;7.082;2023-08-06T00:36:34;6.03;;;3.53;;
48327;SDS011;34136;51.022;7.082;2023-08-06T00:39:20;4.90;;;3.22;;
48327;SDS011;34136;51.022;7.082;2023-08-06T00:42:06;5.70;;;2.83;;
48327;SDS011;34136;51.022;7.082;2023-08-06T00:44:52;7.65;;;3.13;;
48327;SDS011;34136;51.022;7.082;2023-08-06T00:47:39;4.90;;;2.90;;
48327;SDS011;34136;51.022;7.082;2023-08-06T00:50:26;3.67;;;2.85;;
48327;SDS011;34136;51.022;7.082;2023-08-06T00:53:12;6.38;;;2.80;;
48327;SDS011;34136;51.022;7.082;2023-08-06T00:56:00;5.10;;;3.35;;
48327;SDS011;34136;51.022;7.082;2023-08-06T00:58:47;4.63;;;3.13;;
48327;SDS011;34136;51.022;7.082;2023-08-06T01:01:34;5.53;;;3.28;;
48327;SDS011;34136;51.022;7.082;2023-08-06T01:04:20;4.80;;;3.45;;
48327;SDS011;34136;51.022;7.082;2023-08-06T01:10:08;5.88;;;3.50;;
48327;SDS011;34136;51.022;7.082;2023-08-06T01:16:21;5.47;;;3.50;;
48327;SDS011;34136;51.022;7.082;2023-08-06T01:19:19;6.97;;;3.95;;
48327;SDS011;34136;51.022;7.082;2023-08-06T01:25:49;4.97;;;3.47;;
48327;SDS011;34136;51.022;7.082;2023-08-06T01:31:41;7.35;;;3.75;;
48327;SDS011;34136;51.022;7.082;2023-08-06T01:34:31;6.10;;;3.00;;
48327;SDS011;34136;51.022;7.082;2023-08-06T01:37:19;4.20;;;3.35;;
48327;SDS011;34136;51.022;7.082;2023-08-06T01:40:09;5.22;;;3.63;;
48327;SDS011;34136;51.022;7.082;2023-08-06T01:42:56;3.88;;;3.10;;
48327;SDS011;34136;51.022;7.082;2023-08-06T01:45:42;6.05;;;3.50;;
48327;SDS011;34136;51.022;7.082;2023-08-06T01:48:29;4.65;;;3.50;;
48327;SDS011;34136;51.022;7.082;2023-08-06T01:51:15;7.25;;;3.47;;
48327;SDS011;34136;51.022;7.082;2023-08-06T01:54:02;6.55;;;3.72;;
48327;SDS011;34136;51.022;7.082;2023-08-06T01:56:48;6.43;;;3.80;;
48327;SDS011;34136;51.022;7.082;2023-08-06T01:59:34;4.65;;;3.58;;
48327;SDS011;34136;51.022;7.082;2023-08-06T02:02:21;5.03;;;3.90;;
48327;SDS011;34136;51.022;7.082;2023-08-06T02:05:07;5.55;;;3.72;;
48327;SDS011;34136;51.022;7.082;2023-08-06T02:07:54;7.88;;;3.55;;
48327;SDS011;34136;51.022;7.082;2023-08-06T02:10:40;4.53;;;3.22;;
48327;SDS011;34136;51.022;7.082;2023-08-06T02:13:26;6.70;;;3.28;;
48327;SDS011;34136;51.022;7.082;2023-08-06T02:16:13;5.05;;;3.03;;
48327;SDS011;34136;51.022;7.082;2023-08-06T02:18:59;4.70;;;3.15;;
48327;SDS011;34136;51.022;7.082;2023-08-06T02:21:45;6.75;;;3.53;;
48327;SDS011;34136;51.022;7.082;2023-08-06T02:24:32;5.07;;;2.75;;
48327;SDS011;34136;51.022;7.082;2023-08-06T02:27:18;5.40;;;3.10;;
48327;SDS011;34136;51.022;7.082;2023-08-06T02:30:05;7.07;;;3.03;;
48327;SDS011;34136;51.022;7.082;2023-08-06T02:32:52;5.50;;;3.33;;
48327;SDS011;34136;51.022;7.082;2023-08-06T02:35:38;4.47;;;2.78;;
48327;SDS011;34136;51.022;7.082;2023-08-06T02:38:25;4.15;;;2.53;;
48327;SDS011;34136;51.022;7.082;2023-08-06T02:41:11;4.60;;;2.83;;
48327;SDS011;34136;51.022;7.082;2023-08-06T02:43:58;5.15;;;2.67;;
48327;SDS011;34136;51.022;7.082;2023-08-06T02:46:44;7.60;;;2.83;;
48327;SDS011;34136;51.022;7.082;2023-08-06T02:49:31;4.93;;;2.83;;
48327;SDS011;34136;51.022;7.082;2023-08-06T02:52:18;7.10;;;2.70;;
48327;SDS011;34136;51.022;7.082;2023-08-06T02:55:04;4.45;;;2.70;;
48327;SDS011;34136;51.022;7.082;2023-08-06T02:57:52;3.58;;;2.30;;
48327;SDS011;34136;51.022;7.082;2023-08-06T03:00:38;5.65;;;2.55;;
48327;SDS011;34136;51.022;7.082;2023-08-06T03:03:26;6.72;;;2.80;;
48327;SDS011;34136;51.022;7.082;2023-08-06T03:06:17;4.83;;;2.80;;
48327;SDS011;34136;51.022;7.082;2023-08-06T03:09:08;4.43;;;2.45;;
48327;SDS011;34136;51.022;7.082;2023-08-06T03:11:54;4.55;;;2.78;;
48327;SDS011;34136;51.022;7.082;2023-08-06T03:14:40;3.53;;;2.58;;
48327;SDS011;34136;51.022;7.082;2023-08-06T03:17:27;7.28;;;2.90;;
48327;SDS011;34136;51.022;7.082;2023-08-06T03:20:14;4.93;;;2.97;;
48327;SDS011;34136;51.022;7.082;2023-08-06T03:23:01;4.30;;;3.25;;
48327;SDS011;34136;51.022;7.082;2023-08-06T03:25:49;5.65;;;3.08;;
48327;SDS011;34136;51.022;7.082;2023-08-06T03:28:36;6.88;;;3.03;;
48327;SDS011;34136;51.022;7.082;2023-08-06T03:31:22;5.43;;;3.20;;
48327;SDS011;34136;51.022;7.082;2023-08-06T03:34:08;5.43;;;3.00;;
48327;SDS011;34136;51.022;7.082;2023-08-06T03:36:55;5.32;;;3.05;;
48327;SDS011;34136;51.022;7.082;2023-08-06T03:39:41;3.97;;;2.70;;
48327;SDS011;34136;51.022;7.082;2023-08-06T03:42:27;6.45;;;3.95;;
48327;SDS011;34136;51.022;7.082;2023-08-06T03:45:14;5.22;;;3.00;;
48327;SDS011;34136;51.022;7.082;2023-08-06T03:48:01;5.63;;;2.95;;
48327;SDS011;34136;51.022;7.082;2023-08-06T03:50:48;5.10;;;3.05;;
48327;SDS011;34136;51.022;7.082;2023-08-06T03:53:36;4.90;;;3.28;;
48327;SDS011;34136;51.022;7.082;2023-08-06T03:56:22;5.22;;;2.85;;
48327;SDS011;34136;51.022;7.082;2023-08-06T03:59:09;7.20;;;3.15;;
48327;SDS011;34136;51.022;7.082;2023-08-06T04:01:55;7.43;;;3.35;;
48327;SDS011;34136;51.022;7.082;2023-08-06T04:04:43;6.00;;;3.70;;
48327;SDS011;34136;51.022;7.082;2023-08-06T04:07:29;5.38;;;3.85;;
48327;SDS011;34136;51.022;7.082;2023-08-06T04:10:17;6.70;;;4.10;;
48327;SDS011;34136;51.022;7.082;2023-08-06T04:13:03;5.72;;;3.50;;
48327;SDS011;34136;51.022;7.082;2023-08-06T04:15:50;4.95;;;3.75;;
48327;SDS011;34136;51.022;7.082;2023-08-06T04:18:36;7.55;;;4.00;;
48327;SDS011;34136;51.022;7.082;2023-08-06T04:21:23;6.10;;;3.45;;
48327;SDS011;34136;51.022;7.082;2023-08-06T04:24:09;6.53;;;3.83;;
48327;SDS011;34136;51.022;7.082;2023-08-06T04:26:55;6.68;;;3.92;;
48327;SDS011;34136;51.022;7.082;2023-08-06T04:29:42;5.88;;;3.67;;
48327;SDS011;34136;51.022;7.082;2023-08-06T04:32:30;7.47;;;3.63;;
48327;SDS011;34136;51.022;7.082;2023-08-06T04:35:16;4.72;;;2.80;;
48327;SDS011;34136;51.022;7.082;2023-08-06T04:38:02;7.20;;;2.92;;
48327;SDS011;34136;51.022;7.082;2023-08-06T04:40:49;4.80;;;2.75;;
48327;SDS011;34136;51.022;7.082;2023-08-06T04:43:35;6.18;;;2.55;;
48327;SDS011;34136;51.022;7.082;2023-08-06T04:46:21;4.85;;;3.03;;
48327;SDS011;34136;51.022;7.082;2023-08-06T04:49:08;5.53;;;2.63;;
48327;SDS011;34136;51.022;7.082;2023-08-06T04:51:54;5.47;;;2.60;;
48327;SDS011;34136;51.022;7.082;2023-08-06T04:54:41;5.03;;;2.70;;
48327;SDS011;34136;51.022;7.082;2023-08-06T04:57:27;4.88;;;3.05;;
48327;SDS011;34136;51.022;7.082;2023-08-06T05:00:13;4.28;;;3.08;;
48327;SDS011;34136;51.022;7.082;2023-08-06T05:02:59;7.38;;;3.10;;
48327;SDS011;34136;51.022;7.082;2023-08-06T05:05:46;4.60;;;2.75;;
48327;SDS011;34136;51.022;7.082;2023-08-06T05:08:33;5.55;;;3.17;;
48327;SDS011;34136;51.022;7.082;2023-08-06T05:11:19;5.72;;;3.83;;
48327;SDS011;34136;51.022;7.082;2023-08-06T05:14:05;5.03;;;2.50;;
48327;SDS011;34136;51.022;7.082;2023-08-06T05:16:52;5.68;;;2.92;;
48327;SDS011;34136;51.022;7.082;2023-08-06T05:19:38;4.63;;;2.75;;
48327;SDS011;34136;51.022;7.082;2023-08-06T05:22:24;4.75;;;2.72;;
48327;SDS011;34136;51.022;7.082;2023-08-06T05:25:12;4.78;;;2.80;;
48327;SDS011;34136;51.022;7.082;2023-08-06T05:27:59;5.57;;;2.80;;
48327;SDS011;34136;51.022;7.082;2023-08-06T05:30:45;5.13;;;3.00;;
48327;SDS011;34136;51.022;7.082;2023-08-06T05:33:32;5.80;;;2.85;;
48327;SDS011;34136;51.022;7.082;2023-08-06T05:36:18;5.18;;;2.70;;
48327;SDS011;34136;51.022;7.082;2023-08-06T05:39:05;6.80;;;2.90;;
48327;SDS011;34136;51.022;7.082;2023-08-06T05:41:51;5.55;;;2.90;;
48327;SDS011;34136;51.022;7.082;2023-08-06T05:44:37;5.47;;;2.65;;
48327;SDS011;34136;51.022;7.082;2023-08-06T05:47:23;4.80;;;2.78;;
48327;SDS011;34136;51.022;7.082;2023-08-06T05:50:09;4.75;;;2.38;;
48327;SDS011;34136;51.022;7.082;2023-08-06T05:52:56;4.53;;;2.53;;
48327;SDS011;34136;51.022;7.082;2023-08-06T05:55:43;4.78;;;2.60;;
48327;SDS011;34136;51.022;7.082;2023-08-06T05:58:29;5.53;;;2.42;;
48327;SDS011;34136;51.022;7.082;2023-08-06T06:01:15;4.70;;;2.58;;
48327;SDS011;34136;51.022;7.082;2023-08-06T06:04:01;5.00;;;2.47;;
48327;SDS011;34136;51.022;7.082;2023-08-06T06:06:47;6.00;;;2.22;;
48327;SDS011;34136;51.022;7.082;2023-08-06T06:09:34;3.97;;;2.45;;
48327;SDS011;34136;51.022;7.082;2023-08-06T06:12:20;2.65;;;2.05;;
48327;SDS011;34136;51.022;7.082;2023-08-06T06:15:06;4.10;;;2.30;;
48327;SDS011;34136;51.022;7.082;2023-08-06T06:17:53;4.13;;;2.30;;
48327;SDS011;34136;51.022;7.082;2023-08-06T06:20:39;5.05;;;2.30;;
48327;SDS011;34136;51.022;7.082;2023-08-06T06:23:26;5.90;;;2.20;;
48327;SDS011;34136;51.022;7.082;2023-08-06T06:26:12;5.22;;;2.42;;
48327;SDS011;34136;51.022;7.082;2023-08-06T06:28:59;5.88;;;2.53;;
48327;SDS011;34136;51.022;7.082;2023-08-06T06:31:45;3.50;;;2.00;;
48327;SDS011;34136;51.022;7.082;2023-08-06T06:34:31;3.85;;;2.40;;
48327;SDS011;34136;51.022;7.082;2023-08-06T06:37:18;3.58;;;2.28;;
48327;SDS011;34136;51.022;7.082;2023-08-06T06:40:04;4.63;;;2.40;;
48327;SDS011;34136;51.022;7.082;2023-08-06T06:42:51;3.85;;;2.05;;
48327;SDS011;34136;51.022;7.082;2023-08-06T06:45:37;4.93;;;2.65;;
48327;SDS011;34136;51.022;7.082;2023-08-06T06:48:24;3.33;;;1.98;;
48327;SDS011;34136;51.022;7.082;2023-08-06T06:51:15;4.32;;;2.35;;
48327;SDS011;34136;51.022;7.082;2023-08-06T06:54:01;4.22;;;1.85;;
48327;SDS011;34136;51.022;7.082;2023-08-06T06:56:47;3.88;;;2.10;;
48327;SDS011;34136;51.022;7.082;2023-08-06T06:59:34;3.33;;;2.00;;
48327;SDS011;34136;51.022;7.082;2023-08-06T07:02:20;2.67;;;1.80;;
48327;SDS011;34136;51.022;7.082;2023-08-06T07:05:06;4.18;;;2.00;;
48327;SDS011;34136;51.022;7.082;2023-08-06T07:07:53;4.25;;;1.98;;
48327;SDS011;34136;51.022;7.082;2023-08-06T07:10:43;6.15;;;1.95;;
48327;SDS011;34136;51.022;7.082;2023-08-06T07:13:29;3.78;;;1.77;;
48327;SDS011;34136;51.022;7.082;2023-08-06T07:16:16;4.10;;;1.80;;
48327;SDS011;34136;51.022;7.082;2023-08-06T07:19:02;5.22;;;1.90;;
48327;SDS011;34136;51.022;7.082;2023-08-06T07:21:48;3.88;;;2.22;;
48327;SDS011;34136;51.022;7.082;2023-08-06T07:24:34;3.78;;;1.77;;
48327;SDS011;34136;51.022;7.082;2023-08-06T07:27:20;2.80;;;1.90;;
48327;SDS011;34136;51.022;7.082;2023-08-06T07:30:07;5.93;;;1.92;;
48327;SDS011;34136;51.022;7.082;2023-08-06T07:32:53;4.43;;;2.20;;
48327;SDS011;34136;51.022;7.082;2023-08-06T07:35:40;3.55;;;2.00;;
48327;SDS011;34136;51.022;7.082;2023-08-06T07:38:26;4.30;;;2.00;;
48327;SDS011;34136;51.022;7.082;2023-08-06T07:41:12;2.50;;;1.85;;
48327;SDS011;34136;51.022;7.082;2023-08-06T07:43:58;3.35;;;2.47;;
48327;SDS011;34136;51.022;7.082;2023-08-06T07:46:45;2.90;;;2.10;;
48327;SDS011;34136;51.022;7.082;2023-08-06T07:49:31;3.72;;;2.00;;
48327;SDS011;34136;51.022;7.082;2023-08-06T07:52:17;3.65;;;1.80;;
48327;SDS011;34136;51.022;7.082;2023-08-06T07:55:04;2.88;;;2.08;;
48327;SDS011;34136;51.022;7.082;2023-08-06T07:57:50;3.65;;;2.10;;
48327;SDS011;34136;51.022;7.082;2023-08-06T08:00:37;3.60;;;1.70;;
48327;SDS011;34136;51.022;7.082;2023-08-06T08:03:23;2.25;;;1.35;;
48327;SDS011;34136;51.022;7.082;2023-08-06T08:06:09;2.88;;;1.48;;
48327;SDS011;34136;51.022;7.082;2023-08-06T08:08:55;1.80;;;1.40;;
48327;SDS011;34136;51.022;7.082;2023-08-06T08:11:41;1.83;;;1.30;;
48327;SDS011;34136;51.022;7.082;2023-08-06T08:14:28;2.42;;;1.17;;
48327;SDS011;34136;51.022;7.082;2023-08-06T08:17:14;2.10;;;1.05;;
48327;SDS011;34136;51.022;7.082;2023-08-06T08:20:01;1.70;;;1.20;;
48327;SDS011;34136;51.022;7.082;2023-08-06T08:22:47;4.68;;;1.30;;
48327;SDS011;34136;51.022;7.082;2023-08-06T08:25:33;2.00;;;1.33;;
48327;SDS011;34136;51.022;7.082;2023-08-06T08:28:19;3.20;;;1.30;;
48327;SDS011;34136;51.022;7.082;2023-08-06T08:31:09;2.00;;;1.10;;
48327;SDS011;34136;51.022;7.082;2023-08-06T08:33:56;1.77;;;1.00;;
48327;SDS011;34136;51.022;7.082;2023-08-06T08:36:42;0.82;;;0.65;;
48327;SDS011;34136;51.022;7.082;2023-08-06T08:39:29;2.05;;;1.10;;
48327;SDS011;34136;51.022;7.082;2023-08-06T08:42:15;1.60;;;0.90;;
48327;SDS011;34136;51.022;7.082;2023-08-06T08:45:02;1.35;;;0.80;;
48327;SDS011;34136;51.022;7.082;2023-08-06T08:47:50;2.00;;;1.10;;
48327;SDS011;34136;51.022;7.082;2023-08-06T08:50:36;2.42;;;0.98;;
48327;SDS011;34136;51.022;7.082;2023-08-06T08:53:23;2.72;;;0.98;;
48327;SDS011;34136;51.022;7.082;2023-08-06T08:56:11;1.90;;;0.90;;
48327;SDS011;34136;51.022;7.082;2023-08-06T08:58:58;2.03;;;1.02;;
48327;SDS011;34136;51.022;7.082;2023-08-06T09:01:45;1.90;;;1.25;;
48327;SDS011;34136;51.022;7.082;2023-08-06T09:04:34;1.20;;;0.82;;
48327;SDS011;34136;51.022;7.082;2023-08-06T09:07:21;1.92;;;1.00;;
48327;SDS011;34136;51.022;7.082;2023-08-06T09:10:10;2.22;;;1.13;;
48327;SDS011;34136;51.022;7.082;2023-08-06T09:12:57;2.30;;;1.20;;
48327;SDS011;34136;51.022;7.082;2023-08-06T09:15:43;1.92;;;1.30;;
48327;SDS011;34136;51.022;7.082;2023-08-06T09:18:30;2.22;;;1.67;;
48327;SDS011;34136;51.022;7.082;2023-08-06T09:21:16;2.85;;;1.70;;
48327;SDS011;34136;51.022;7.082;2023-08-06T09:24:07;2.20;;;1.42;;
48327;SDS011;34136;51.022;7.082;2023-08-06T09:26:54;2.15;;;1.70;;
48327;SDS011;34136;51.022;7.082;2023-08-06T09:29:44;2.65;;;1.70;;
48327;SDS011;34136;51.022;7.082;2023-08-06T09:32:49;2.80;;;2.15;;
48327;SDS011;34136;51.022;7.082;2023-08-06T09:35:35;3.78;;;2.92;;
48327;SDS011;34136;51.022;7.082;2023-08-06T09:38:22;6.68;;;3.40;;
48327;SDS011;34136;51.022;7.082;2023-08-06T09:41:08;5.85;;;3.53;;
48327;SDS011;34136;51.022;7.082;2023-08-06T09:43:55;6.07;;;3.28;;
48327;SDS011;34136;51.022;7.082;2023-08-06T09:46:41;3.22;;;2.67;;
48327;SDS011;34136;51.022;7.082;2023-08-06T09:52:19;5.85;;;3.80;;
48327;SDS011;34136;51.022;7.082;2023-08-06T09:55:06;5.47;;;3.72;;
48327;SDS011;34136;51.022;7.082;2023-08-06T09:57:55;4.07;;;3.67;;
48327;SDS011;34136;51.022;7.082;2023-08-06T10:00:43;3.70;;;3.20;;
48327;SDS011;34136;51.022;7.082;2023-08-06T10:03:30;4.47;;;2.88;;
48327;SDS011;34136;51.022;7.082;2023-08-06T10:06:19;3.63;;;2.90;;
48327;SDS011;34136;51.022;7.082;2023-08-06T10:09:07;4.00;;;2.83;;
48327;SDS011;34136;51.022;7.082;2023-08-06T10:11:54;3.20;;;2.90;;
48327;SDS011;34136;51.022;7.082;2023-08-06T10:14:42;2.95;;;2.20;;
48327;SDS011;34136;51.022;7.082;2023-08-06T10:17:28;3.10;;;2.40;;
48327;SDS011;34136;51.022;7.082;2023-08-06T10:20:17;4.22;;;2.78;;
48327;SDS011;34136;51.022;7.082;2023-08-06T10:23:04;4.85;;;3.42;;
48327;SDS011;34136;51.022;7.082;2023-08-06T10:25:53;5.50;;;3.47;;
48327;SDS011;34136;51.022;7.082;2023-08-06T10:28:40;6.22;;;3.00;;
48327;SDS011;34136;51.022;7.082;2023-08-06T10:32:09;5.45;;;1.77;;
48327;SDS011;34136;51.022;7.082;2023-08-06T10:35:12;2.50;;;1.20;;
48327;SDS011;34136;51.022;7.082;2023-08-06T10:37:52;1.67;;;0.60;;
48327;SDS011;34136;51.022;7.082;2023-08-06T10:40:41;1.42;;;0.60;;
48327;SDS011;34136;51.022;7.082;2023-08-06T10:43:30;0.95;;;0.55;;
48327;SDS011;34136;51.022;7.082;2023-08-06T10:46:22;1.40;;;0.90;;
48327;SDS011;34136;51.022;7.082;2023-08-06T10:49:12;2.90;;;0.95;;
48327;SDS011;34136;51.022;7.082;2023-08-06T10:52:03;2.80;;;1.50;;
48327;SDS011;34136;51.022;7.082;2023-08-06T10:54:49;3.83;;;1.60;;
48327;SDS011;34136;51.022;7.082;2023-08-06T10:57:35;3.85;;;1.60;;
48327;SDS011;34136;51.022;7.082;2023-08-06T11:00:22;3.17;;;1.45;;
48327;SDS011;34136;51.022;7.082;2023-08-06T11:03:09;3.55;;;1.52;;
48327;SDS011;34136;51.022;7.082;2023-08-06T11:05:55;2.55;;;1.27;;
48327;SDS011;34136;51.022;7.082;2023-08-06T11:08:46;3.97;;;2.20;;
48327;SDS011;34136;51.022;7.082;2023-08-06T11:11:33;3.15;;;1.38;;
48327;SDS011;34136;51.022;7.082;2023-08-06T11:14:20;3.15;;;1.50;;
48327;SDS011;34136;51.022;7.082;2023-08-06T11:17:06;2.78;;;1.20;;
48327;SDS011;34136;51.022;7.082;2023-08-06T11:19:53;2.42;;;0.98;;
48327;SDS011;34136;51.022;7.082;2023-08-06T11:22:40;2.22;;;1.15;;
48327;SDS011;34136;51.022;7.082;2023-08-06T11:25:26;3.17;;;1.42;;
48327;SDS011;34136;51.022;7.082;2023-08-06T11:32:07;2.58;;;1.80;;
48327;SDS011;34136;51.022;7.082;2023-08-06T11:34:55;3.33;;;1.63;;
48327;SDS011;34136;51.022;7.082;2023-08-06T11:37:45;5.82;;;2.20;;
48327;SDS011;34136;51.022;7.082;2023-08-06T11:40:32;3.90;;;2.47;;
48327;SDS011;34136;51.022;7.082;2023-08-06T11:43:21;5.53;;;3.05;;
48327;SDS011;34136;51.022;7.082;2023-08-06T11:46:08;6.25;;;3.22;;
48327;SDS011;34136;51.022;7.082;2023-08-06T11:48:55;7.47;;;3.70;;
48327;SDS011;34136;51.022;7.082;2023-08-06T11:51:42;10.13;;;4.15;;
48327;SDS011;34136;51.022;7.082;2023-08-06T11:54:31;8.38;;;4.10;;
48327;SDS011;34136;51.022;7.082;2023-08-06T11:57:18;6.97;;;3.60;;
48327;SDS011;34136;51.022;7.082;2023-08-06T12:00:04;8.23;;;4.00;;
48327;SDS011;34136;51.022;7.082;2023-08-06T12:02:58;9.18;;;4.50;;
48327;SDS011;34136;51.022;7.082;2023-08-06T12:05:44;8.68;;;4.63;;
48327;SDS011;34136;51.022;7.082;2023-08-06T12:08:30;9.32;;;3.53;;
48327;SDS011;34136;51.022;7.082;2023-08-06T12:11:16;9.52;;;4.38;;
48327;SDS011;34136;51.022;7.082;2023-08-06T12:14:02;7.07;;;4.05;;
48327;SDS011;34136;51.022;7.082;2023-08-06T12:16:49;10.10;;;4.50;;
48327;SDS011;34136;51.022;7.082;2023-08-06T12:19:35;6.20;;;4.10;;
48327;SDS011;34136;51.022;7.082;2023-08-06T12:22:22;8.73;;;4.50;;
48327;SDS011;34136;51.022;7.082;2023-08-06T12:25:09;11.45;;;4.82;;
48327;SDS011;34136;51.022;7.082;2023-08-06T12:28:23;6.72;;;3.20;;
48327;SDS011;34136;51.022;7.082;2023-08-06T12:31:12;8.60;;;3.75;;
48327;SDS011;34136;51.022;7.082;2023-08-06T12:33:58;7.07;;;3.90;;
48327;SDS011;34136;51.022;7.082;2023-08-06T12:36:44;8.57;;;4.20;;
48327;SDS011;34136;51.022;7.082;2023-08-06T12:39:31;8.07;;;3.58;;
48327;SDS011;34136;51.022;7.082;2023-08-06T12:42:17;10.10;;;3.40;;
48327;SDS011;34136;51.022;7.082;2023-08-06T12:45:03;7.47;;;3.45;;
48327;SDS011;34136;51.022;7.082;2023-08-06T12:47:49;7.25;;;3.25;;
48327;SDS011;34136;51.022;7.082;2023-08-06T12:50:36;10.07;;;4.93;;
48327;SDS011;34136;51.022;7.082;2023-08-06T12:53:22;10.80;;;6.18;;
48327;SDS011;34136;51.022;7.082;2023-08-06T12:56:08;6.30;;;3.40;;
48327;SDS011;34136;51.022;7.082;2023-08-06T12:58:54;8.30;;;3.70;;
48327;SDS011;34136;51.022;7.082;2023-08-06T13:01:41;6.63;;;3.03;;
48327;SDS011;34136;51.022;7.082;2023-08-06T13:04:27;5.88;;;3.10;;
48327;SDS011;34136;51.022;7.082;2023-08-06T13:07:14;4.65;;;2.90;;
48327;SDS011;34136;51.022;7.082;2023-08-06T13:10:00;4.57;;;2.80;;
48327;SDS011;34136;51.022;7.082;2023-08-06T13:12:55;6.78;;;2.92;;
48327;SDS011;34136;51.022;7.082;2023-08-06T13:15:54;6.45;;;3.10;;
48327;SDS011;34136;51.022;7.082;2023-08-06T13:18:40;4.35;;;2.85;;
48327;SDS011;34136;51.022;7.082;2023-08-06T13:21:35;6.65;;;3.13;;
48327;SDS011;34136;51.022;7.082;2023-08-06T13:24:41;5.38;;;2.65;;
48327;SDS011;34136;51.022;7.082;2023-08-06T13:27:27;5.93;;;2.88;;
48327;SDS011;34136;51.022;7.082;2023-08-06T13:30:14;6.70;;;2.55;;
48327;SDS011;34136;51.022;7.082;2023-08-06T13:33:01;4.45;;;2.70;;
48327;SDS011;34136;51.022;7.082;2023-08-06T13:35:47;5.07;;;3.17;;
48327;SDS011;34136;51.022;7.082;2023-08-06T13:38:33;3.22;;;2.13;;
48327;SDS011;34136;51.022;7.082;2023-08-06T13:41:19;3.33;;;2.00;;
48327;SDS011;34136;51.022;7.082;2023-08-06T13:44:06;5.50;;;2.50;;
48327;SDS011;34136;51.022;7.082;2023-08-06T13:46:52;6.78;;;2.70;;
48327;SDS011;34136;51.022;7.082;2023-08-06T13:49:39;4.78;;;2.55;;
48327;SDS011;34136;51.022;7.082;2023-08-06T13:52:25;4.35;;;2.50;;
48327;SDS011;34136;51.022;7.082;2023-08-06T13:55:11;4.15;;;2.45;;
48327;SDS011;34136;51.022;7.082;2023-08-06T13:57:57;4.43;;;2.40;;
48327;SDS011;34136;51.022;7.082;2023-08-06T14:00:44;4.90;;;2.53;;
48327;SDS011;34136;51.022;7.082;2023-08-06T14:03:30;5.38;;;2.70;;
48327;SDS011;34136;51.022;7.082;2023-08-06T14:06:16;4.07;;;2.90;;
48327;SDS011;34136;51.022;7.082;2023-08-06T14:09:02;5.63;;;2.63;;
48327;SDS011;34136;51.022;7.082;2023-08-06T14:11:49;5.53;;;2.40;;
48327;SDS011;34136;51.022;7.082;2023-08-06T14:14:35;5.10;;;2.33;;
48327;SDS011;34136;51.022;7.082;2023-08-06T14:17:21;4.78;;;2.50;;
48327;SDS011;34136;51.022;7.082;2023-08-06T14:20:08;4.55;;;2.40;;
48327;SDS011;34136;51.022;7.082;2023-08-06T14:22:55;4.57;;;2.83;;
48327;SDS011;34136;51.022;7.082;2023-08-06T14:25:41;5.93;;;2.65;;
48327;SDS011;34136;51.022;7.082;2023-08-06T14:28:27;4.32;;;2.30;;
48327;SDS011;34136;51.022;7.082;2023-08-06T14:31:22;5.38;;;2.75;;
48327;SDS011;34136;51.022;7.082;2023-08-06T14:34:18;4.38;;;2.47;;
48327;SDS011;34136;51.022;7.082;2023-08-06T14:37:04;4.50;;;2.65;;
48327;SDS011;34136;51.022;7.082;2023-08-06T14:39:51;4.57;;;2.80;;
48327;SDS011;34136;51.022;7.082;2023-08-06T14:42:37;5.80;;;2.72;;
48327;SDS011;34136;51.022;7.082;2023-08-06T14:45:24;7.38;;;3.17;;
48327;SDS011;34136;51.022;7.082;2023-08-06T14:48:10;8.43;;;3.30;;
48327;SDS011;34136;51.022;7.082;2023-08-06T14:50:56;9.02;;;2.25;;
48327;SDS011;34136;51.022;7.082;2023-08-06T14:53:43;6.22;;;1.85;;
48327;SDS011;34136;51.022;7.082;2023-08-06T14:56:29;7.40;;;2.10;;
48327;SDS011;34136;51.022;7.082;2023-08-06T14:59:15;9.30;;;2.53;;
48327;SDS011;34136;51.022;7.082;2023-08-06T15:02:02;6.70;;;2.40;;
48327;SDS011;34136;51.022;7.082;2023-08-06T15:04:48;6.35;;;2.30;;
48327;SDS011;34136;51.022;7.082;2023-08-06T15:07:34;7.45;;;2.60;;
48327;SDS011;34136;51.022;7.082;2023-08-06T15:10:21;5.45;;;2.20;;
48327;SDS011;34136;51.022;7.082;2023-08-06T15:13:07;6.70;;;2.35;;
48327;SDS011;34136;51.022;7.082;2023-08-06T15:15:53;6.20;;;2.78;;
48327;SDS011;34136;51.022;7.082;2023-08-06T15:18:40;8.88;;;2.90;;
48327;SDS011;34136;51.022;7.082;2023-08-06T15:21:27;10.77;;;2.50;;
48327;SDS011;34136;51.022;7.082;2023-08-06T15:24:13;7.63;;;2.35;;
48327;SDS011;34136;51.022;7.082;2023-08-06T15:27:00;8.35;;;2.63;;
48327;SDS011;34136;51.022;7.082;2023-08-06T15:29:46;7.10;;;2.30;;
48327;SDS011;34136;51.022;7.082;2023-08-06T15:32:32;5.88;;;2.60;;
48327;SDS011;34136;51.022;7.082;2023-08-06T15:35:18;4.95;;;2.30;;
48327;SDS011;34136;51.022;7.082;2023-08-06T15:38:05;8.68;;;2.40;;
48327;SDS011;34136;51.022;7.082;2023-08-06T15:40:51;4.75;;;2.42;;
48327;SDS011;34136;51.022;7.082;2023-08-06T15:43:37;5.72;;;2.05;;
48327;SDS011;34136;51.022;7.082;2023-08-06T15:46:23;4.85;;;2.15;;
48327;SDS011;34136;51.022;7.082;2023-08-06T15:49:09;6.00;;;1.90;;
48327;SDS011;34136;51.022;7.082;2023-08-06T15:51:55;3.65;;;1.75;;
48327;SDS011;34136;51.022;7.082;2023-08-06T15:54:41;3.38;;;1.80;;
48327;SDS011;34136;51.022;7.082;2023-08-06T15:57:27;4.63;;;1.65;;
48327;SDS011;34136;51.022;7.082;2023-08-06T16:00:22;4.80;;;2.20;;
48327;SDS011;34136;51.022;7.082;2023-08-06T16:03:11;4.47;;;2.10;;
48327;SDS011;34136;51.022;7.082;2023-08-06T16:14:02;8.77;;;2.60;;
48327;SDS011;34136;51.022;7.082;2023-08-06T16:20:18;4.85;;;2.55;;
48327;SDS011;34136;51.022;7.082;2023-08-06T16:23:05;5.65;;;2.60;;
48327;SDS011;34136;51.022;7.082;2023-08-06T16:25:51;6.82;;;2.88;;
48327;SDS011;34136;51.022;7.082;2023-08-06T16:28:37;7.30;;;3.05;;
48327;SDS011;34136;51.022;7.082;2023-08-06T16:31:23;7.35;;;3.08;;
48327;SDS011;34136;51.022;7.082;2023-08-06T16:34:18;8.43;;;3.33;;
48327;SDS011;34136;51.022;7.082;2023-08-06T16:41:02;5.22;;;2.30;;
48327;SDS011;34136;51.022;7.082;2023-08-06T16:43:48;6.85;;;2.70;;
48327;SDS011;34136;51.022;7.082;2023-08-06T16:46:35;6.75;;;2.58;;
48327;SDS011;34136;51.022;7.082;2023-08-06T16:49:21;3.35;;;1.92;;
48327;SDS011;34136;51.022;7.082;2023-08-06T16:52:07;4.45;;;1.48;;
48327;SDS011;34136;51.022;7.082;2023-08-06T16:54:53;3.40;;;1.73;;
48327;SDS011;34136;51.022;7.082;2023-08-06T16:57:39;2.10;;;1.38;;
48327;SDS011;34136;51.022;7.082;2023-08-06T17:00:26;3.17;;;1.77;;
48327;SDS011;34136;51.022;7.082;2023-08-06T17:03:13;3.42;;;1.75;;
48327;SDS011;34136;51.022;7.082;2023-08-06T17:06:00;3.55;;;1.83;;
48327;SDS011;34136;51.022;7.082;2023-08-06T17:08:47;3.15;;;1.38;;
48327;SDS011;34136;51.022;7.082;2023-08-06T17:11:33;2.35;;;1.30;;
48327;SDS011;34136;51.022;7.082;2023-08-06T17:14:19;2.03;;;1.20;;
48327;SDS011;34136;51.022;7.082;2023-08-06T17:17:05;2.88;;;1.33;;
48327;SDS011;34136;51.022;7.082;2023-08-06T17:19:52;2.45;;;1.52;;
48327;SDS011;34136;51.022;7.082;2023-08-06T17:22:38;3.30;;;1.58;;